Time;durP1;ratioP1;P1;durP2;ratioP2;P2;SDS_P1;SDS_P2;PMS_P1;PMS_P2;Temp;Humidity;BMP_temperature;BMP_pressure;BME280_temperature;BME280_humidity;BME280_pressure;Samples;Min_cycle;Max_cycle;Signal;HPM_P1;HPM_P2
2023/05/09 00:00:24;;;;;;;12.60;12.17;;;22.60;99.20;;;;;;5034599;28;20483;-59
2023/05/09 00:02:53;;;;;;;16.20;15.50;;;22.60;99.30;;;;;;5034551;28;20457;-60
2023/05/09 00:05:20;;;;;;;16.87;16.17;;;22.60;99.20;;;;;;5034193;28;20476;-60
2023/05/09 00:07:47;;;;;;;13.40;12.90;;;22.60;99.30;;;;;;5034258;28;20448;-60
2023/05/09 00:10:14;;;;;;;14.17;13.57;;;22.60;99.40;;;;;;5034101;28;21009;-60
2023/05/09 00:12:42;;;;;;;14.30;13.60;;;22.60;99.40;;;;;;5034333;28;20488;-60
2023/05/09 00:15:11;;;;;;;14.80;14.00;;;22.60;99.50;;;;;;5033977;28;20445;-60
2023/05/09 00:17:38;;;;;;;14.87;13.83;;;22.60;99.50;;;;;;5033826;28;20809;-62
2023/05/09 00:20:09;;;;;;;14.30;13.80;;;22.60;99.40;;;;;;5033435;28;20516;-62
2023/05/09 00:22:36;;;;;;;14.40;13.80;;;22.60;99.40;;;;;;5033973;28;20449;-60
2023/05/09 00:25:03;;;;;;;13.53;13.03;;;22.60;99.30;;;;;;5034070;28;20524;-56
2023/05/09 00:27:30;;;;;;;14.03;13.43;;;22.60;99.40;;;;;;5033873;28;20960;-61
2023/05/09 00:29:57;;;;;;;14.67;14.07;;;22.60;99.40;;;;;;5034108;28;20813;-60
2023/05/09 00:32:27;;;;;;;13.30;12.80;;;22.60;99.30;;;;;;5032888;28;20530;-60
2023/05/09 00:34:54;;;;;;;13.80;13.00;;;22.60;99.40;;;;;;5033903;28;20445;-58
2023/05/09 00:37:21;;;;;;;14.23;13.70;;;22.50;99.40;;;;;;5033340;28;20453;-61
2023/05/09 00:39:48;;;;;;;12.97;12.47;;;22.50;99.50;;;;;;5033846;28;20563;-61
2023/05/09 00:42:15;;;;;;;13.30;12.80;;;22.50;99.50;;;;;;5033675;28;20548;-60
2023/05/09 00:44:42;;;;;;;13.70;13.20;;;22.50;99.40;;;;;;5033732;28;20491;-61
2023/05/09 00:47:09;;;;;;;14.23;13.63;;;22.60;99.40;;;;;;5033409;28;20444;-62
2023/05/09 00:49:38;;;;;;;14.13;13.50;;;22.50;99.40;;;;;;5033592;28;20473;-60
2023/05/09 00:52:05;;;;;;;13.63;13.10;;;22.50;99.50;;;;;;5033641;28;20557;-62
2023/05/09 00:54:32;;;;;;;13.10;12.60;;;22.50;99.50;;;;;;5033301;28;20952;-61
2023/05/09 00:56:59;;;;;;;13.13;12.63;;;22.50;99.60;;;;;;5033468;28;20445;-61
2023/05/09 00:59:28;;;;;;;14.00;13.43;;;22.50;99.60;;;;;;5033454;28;20855;-59
2023/05/09 01:01:55;;;;;;;13.20;12.70;;;22.50;99.60;;;;;;5033373;28;20503;-60
2023/05/09 01:04:22;;;;;;;14.40;13.80;;;22.50;99.60;;;;;;5033118;28;20971;-61
2023/05/09 01:06:57;;;;;;;13.80;13.30;;;22.40;99.60;;;;;;5032996;28;20987;-61
2023/05/09 01:09:32;;;;;;;13.50;13.00;;;22.50;99.60;;;;;;5033301;28;20980;-60
2023/05/09 01:12:07;;;;;;;14.37;13.80;;;22.50;99.60;;;;;;5033761;28;20555;-62
2023/05/09 01:14:44;;;;;;;13.77;13.00;;;22.50;99.60;;;;;;5032937;28;20865;-60
2023/05/09 01:17:16;;;;;;;14.13;13.33;;;22.50;99.60;;;;;;5032498;28;20440;-61
2023/05/09 01:19:53;;;;;;;12.93;12.43;;;22.50;99.60;;;;;;5032920;28;21110;-60
2023/05/09 01:22:26;;;;;;;12.63;12.13;;;22.40;99.60;;;;;;5032951;28;20496;-61
2023/05/09 01:25:24;;;;;;;13.47;12.77;;;22.40;99.70;;;;;;5032530;28;20482;-60
2023/05/09 01:27:58;;;;;;;13.77;13.07;;;22.40;99.70;;;;;;5022205;28;20488;-62
2023/05/09 01:30:28;;;;;;;12.60;12.20;;;22.40;99.60;;;;;;5032945;28;20842;-59
2023/05/09 01:33:01;;;;;;;13.70;13.20;;;22.40;99.60;;;;;;5032826;28;20971;-59
2023/05/09 01:35:30;;;;;;;14.63;13.90;;;22.40;99.60;;;;;;5032519;28;20544;-61
2023/05/09 01:37:59;;;;;;;14.13;13.30;;;22.40;99.60;;;;;;5032288;28;20889;-61
2023/05/09 01:40:31;;;;;;;14.03;13.53;;;22.40;99.60;;;;;;5032512;28;21047;-59
2023/05/09 01:43:02;;;;;;;13.90;13.40;;;22.40;99.70;;;;;;5032930;28;20801;-61
2023/05/09 01:45:32;;;;;;;13.53;13.00;;;22.40;99.70;;;;;;5032382;28;20495;-61
2023/05/09 01:48:00;;;;;;;14.93;14.27;;;22.40;99.80;;;;;;5032268;28;20532;-59
2023/05/09 01:50:30;;;;;;;13.73;13.13;;;22.40;99.80;;;;;;5032475;28;20493;-61
2023/05/09 01:52:59;;;;;;;13.70;13.10;;;22.40;99.90;;;;;;5032543;28;20532;-62
2023/05/09 01:55:28;;;;;;;13.50;13.00;;;22.40;99.90;;;;;;5032118;28;21001;-62
2023/05/09 01:57:57;;;;;;;13.70;13.20;;;22.40;99.80;;;;;;5032128;28;20473;-58
2023/05/09 02:00:25;;;;;;;13.00;12.50;;;22.40;99.90;;;;;;5032314;28;21001;-61
2023/05/09 02:02:54;;;;;;;14.10;13.40;;;22.40;99.90;;;;;;5032251;28;20481;-61
2023/05/09 02:05:22;;;;;;;13.77;13.27;;;22.40;99.80;;;;;;5032061;28;20480;-62
2023/05/09 02:07:49;;;;;;;12.97;12.47;;;22.40;99.80;;;;;;5032028;28;20885;-61
2023/05/09 02:10:17;;;;;;;14.33;13.73;;;22.30;99.80;;;;;;5031926;28;20524;-62
2023/05/09 02:12:43;;;;;;;13.70;13.10;;;22.40;99.80;;;;;;5032172;28;20485;-62
2023/05/09 02:15:11;;;;;;;13.90;13.30;;;22.40;99.80;;;;;;5030983;28;20895;-62
2023/05/09 02:17:38;;;;;;;13.30;12.80;;;22.30;99.80;;;;;;5028977;28;20528;-62
2023/05/09 02:20:10;;;;;;;14.87;14.10;;;22.30;99.80;;;;;;5030812;28;20508;-62
2023/05/09 02:22:37;;;;;;;13.77;13.27;;;22.30;99.90;;;;;;5031973;28;20532;-61
2023/05/09 02:25:06;;;;;;;13.30;12.80;;;22.30;99.90;;;;;;5031791;28;20484;-62
2023/05/09 02:27:34;;;;;;;15.10;14.40;;;22.30;99.90;;;;;;5031644;28;20484;-62
2023/05/09 02:30:06;;;;;;;14.10;13.50;;;22.30;99.90;;;;;;5031780;28;20445;-61
2023/05/09 02:32:35;;;;;;;14.10;13.40;;;22.30;99.90;;;;;;5031539;28;20449;-59
2023/05/09 02:35:03;;;;;;;13.63;13.07;;;22.40;99.90;;;;;;5031754;28;20484;-59
2023/05/09 02:37:31;;;;;;;15.37;14.53;;;22.30;99.90;;;;;;5031433;28;20480;-61
2023/05/09 02:39:58;;;;;;;14.60;13.90;;;22.30;99.90;;;;;;5031594;28;20485;-61
2023/05/09 02:42:28;;;;;;;14.40;13.80;;;22.30;99.90;;;;;;5031326;28;20557;-60
2023/05/09 02:44:56;;;;;;;13.50;12.90;;;22.30;99.90;;;;;;5031158;28;20472;-61
2023/05/09 02:47:23;;;;;;;13.60;13.00;;;22.30;99.90;;;;;;5031402;28;20532;-61
2023/05/09 02:49:50;;;;;;;14.23;13.23;;;22.30;99.90;;;;;;5031554;28;20481;-62
2023/05/09 02:52:16;;;;;;;13.53;13.00;;;22.30;99.90;;;;;;5031208;28;20501;-62
2023/05/09 02:54:46;;;;;;;13.80;13.20;;;22.30;99.90;;;;;;5031194;28;20480;-62
2023/05/09 02:57:13;;;;;;;13.70;13.10;;;22.30;99.90;;;;;;5031376;28;20460;-62
2023/05/09 02:59:41;;;;;;;14.23;13.53;;;22.30;99.90;;;;;;5031284;28;20484;-62
2023/05/09 03:02:07;;;;;;;13.70;13.00;;;22.30;99.90;;;;;;5031110;28;20559;-61
2023/05/09 03:04:34;;;;;;;14.43;13.73;;;22.30;99.90;;;;;;5031319;28;20476;-62
2023/05/09 03:07:01;;;;;;;14.10;13.50;;;22.30;99.90;;;;;;5031214;28;20957;-62
2023/05/09 03:09:28;;;;;;;14.77;14.07;;;22.30;99.90;;;;;;5031427;28;20528;-60
2023/05/09 03:11:56;;;;;;;16.83;16.03;;;22.30;99.90;;;;;;5030866;28;20592;-60
2023/05/09 03:14:23;;;;;;;15.20;14.60;;;22.30;99.90;;;;;;5031286;28;20491;-59
2023/05/09 03:16:50;;;;;;;16.37;15.33;;;22.30;99.90;;;;;;5031010;28;20979;-60
2023/05/09 03:19:17;;;;;;;15.77;14.97;;;22.30;99.90;;;;;;5031126;28;20501;-60
2023/05/09 03:21:44;;;;;;;14.40;13.70;;;22.30;99.90;;;;;;5030928;28;21058;-61
2023/05/09 03:24:11;;;;;;;15.10;14.40;;;22.20;99.90;;;;;;5031289;28;20993;-59
2023/05/09 03:26:38;;;;;;;14.27;13.57;;;22.30;99.90;;;;;;5030728;28;20503;-60
2023/05/09 03:29:06;;;;;;;15.13;14.43;;;22.30;99.90;;;;;;5031223;28;20456;-61
2023/05/09 03:31:33;;;;;;;14.40;13.80;;;22.30;99.90;;;;;;5030719;28;20492;-61
2023/05/09 03:34:00;;;;;;;16.33;15.53;;;22.20;99.90;;;;;;5031220;28;20484;-61
2023/05/09 03:36:27;;;;;;;15.83;15.10;;;22.30;99.90;;;;;;5031043;28;20532;-59
2023/05/09 03:38:54;;;;;;;15.63;14.93;;;22.20;99.90;;;;;;5030883;28;20940;-58
2023/05/09 03:41:21;;;;;;;15.00;14.40;;;22.20;99.90;;;;;;5030376;28;20994;-59
2023/05/09 03:43:48;;;;;;;16.27;15.47;;;22.30;99.90;;;;;;5030901;28;20457;-60
2023/05/09 03:46:16;;;;;;;15.10;14.43;;;22.30;99.90;;;;;;5030836;28;20491;-60
2023/05/09 03:48:43;;;;;;;15.07;14.37;;;22.30;99.90;;;;;;5030910;28;20481;-61
2023/05/09 03:51:10;;;;;;;16.40;15.50;;;22.30;99.90;;;;;;5030697;28;20497;-60
2023/05/09 03:53:36;;;;;;;14.10;13.40;;;22.20;99.90;;;;;;5030908;28;20535;-60
2023/05/09 03:56:03;;;;;;;14.33;13.73;;;22.30;99.90;;;;;;5030936;28;20535;-61
2023/05/09 03:58:30;;;;;;;16.13;15.33;;;22.20;99.90;;;;;;5030856;28;20873;-62
2023/05/09 04:00:57;;;;;;;15.70;14.87;;;22.20;99.90;;;;;;5030440;28;20519;-58
2023/05/09 04:03:26;;;;;;;15.50;14.83;;;22.20;99.90;;;;;;5030838;28;20481;-61
2023/05/09 04:05:54;;;;;;;15.87;15.17;;;22.20;99.90;;;;;;5031403;28;20487;-61
2023/05/09 04:08:21;;;;;;;16.30;15.50;;;22.20;99.90;;;;;;5034310;28;20475;-61
2023/05/09 04:10:47;;;;;;;16.60;15.90;;;22.20;99.90;;;;;;5034037;28;20507;-60
2023/05/09 04:13:15;;;;;;;15.90;15.20;;;22.20;99.90;;;;;;5034405;28;20880;-60
2023/05/09 04:15:42;;;;;;;15.57;14.77;;;22.20;99.90;;;;;;5034288;28;20452;-59
2023/05/09 04:18:09;;;;;;;16.33;15.30;;;22.20;99.90;;;;;;5034078;28;20969;-62
2023/05/09 04:20:37;;;;;;;15.47;14.77;;;22.20;99.90;;;;;;5033910;28;20902;-61
2023/05/09 04:23:04;;;;;;;16.40;15.43;;;22.20;99.90;;;;;;5033568;28;20479;-60
2023/05/09 04:25:31;;;;;;;15.60;14.80;;;22.20;99.90;;;;;;5034134;28;20484;-61
2023/05/09 04:27:57;;;;;;;14.83;14.13;;;22.20;99.90;;;;;;5033883;28;20864;-60
2023/05/09 04:30:25;;;;;;;17.73;16.63;;;22.20;99.90;;;;;;5033925;28;20874;-60
2023/05/09 04:32:54;;;;;;;15.30;14.50;;;22.20;99.90;;;;;;5033885;28;20493;-59
2023/05/09 04:35:21;;;;;;;15.20;14.50;;;22.20;99.90;;;;;;5033787;28;20628;-59
2023/05/09 04:37:49;;;;;;;15.17;14.57;;;22.20;99.90;;;;;;5033811;28;20452;-61
2023/05/09 04:40:16;;;;;;;15.70;14.70;;;22.20;99.90;;;;;;5033677;28;20571;-60
2023/05/09 04:42:43;;;;;;;16.40;15.47;;;22.20;99.90;;;;;;5033668;28;20485;-61
2023/05/09 04:45:11;;;;;;;14.40;13.80;;;22.20;99.90;;;;;;5033720;28;20495;-61
2023/05/09 04:47:38;;;;;;;14.53;13.90;;;22.20;99.90;;;;;;5033639;28;20480;-60
2023/05/09 04:50:06;;;;;;;15.10;14.40;;;22.20;99.90;;;;;;5033645;28;20758;-60
2023/05/09 04:52:33;;;;;;;15.60;14.80;;;22.20;99.90;;;;;;5033067;28;20982;-59
2023/05/09 04:55:02;;;;;;;18.60;17.80;;;22.20;99.90;;;;;;5033334;28;20473;-59
2023/05/09 04:57:29;;;;;;;16.23;15.40;;;22.20;99.90;;;;;;5033491;28;20576;-60
2023/05/09 04:59:56;;;;;;;17.07;16.17;;;22.20;99.90;;;;;;5033204;28;20485;-61
2023/05/09 05:02:24;;;;;;;17.90;17.10;;;22.20;99.90;;;;;;5033248;28;20504;-60
2023/05/09 05:04:50;;;;;;;17.10;16.23;;;22.10;99.90;;;;;;5033509;28;20448;-59
2023/05/09 05:07:17;;;;;;;16.20;15.50;;;22.20;99.90;;;;;;5033300;28;20987;-59
2023/05/09 05:09:44;;;;;;;16.77;15.97;;;22.20;99.90;;;;;;5033281;28;20469;-58
2023/05/09 05:12:12;;;;;;;16.93;16.13;;;22.20;99.90;;;;;;5032906;28;20505;-61
2023/05/09 05:14:39;;;;;;;18.07;17.10;;;22.20;99.90;;;;;;5033232;28;20820;-65
2023/05/09 05:17:07;;;;;;;18.23;16.73;;;22.20;99.90;;;;;;5032645;28;20849;-64
2023/05/09 05:19:34;;;;;;;17.57;16.77;;;22.30;99.90;;;;;;5032990;28;21075;-60
2023/05/09 05:22:01;;;;;;;17.40;16.70;;;22.40;99.90;;;;;;5032682;28;20548;-59
2023/05/09 05:24:28;;;;;;;17.67;16.87;;;22.40;99.90;;;;;;5033141;28;20476;-60
2023/05/09 05:26:54;;;;;;;19.20;18.30;;;22.50;99.90;;;;;;5032793;28;20453;-61
2023/05/09 05:29:23;;;;;;;18.60;17.60;;;22.60;99.90;;;;;;5032639;28;20481;-63
2023/05/09 05:31:50;;;;;;;18.23;17.33;;;22.60;99.90;;;;;;5032836;28;20473;-61
2023/05/09 05:34:16;;;;;;;16.40;15.67;;;22.70;99.90;;;;;;5032786;28;20484;-60
2023/05/09 05:36:43;;;;;;;18.77;17.97;;;22.80;99.90;;;;;;5032646;28;20488;-59
2023/05/09 05:39:10;;;;;;;16.93;16.13;;;22.80;99.70;;;;;;5032461;28;20481;-59
2023/05/09 05:41:37;;;;;;;17.80;16.80;;;22.80;99.50;;;;;;5032534;28;20574;-58
2023/05/09 05:44:05;;;;;;;18.73;17.93;;;22.90;99.20;;;;;;5032519;28;20445;-55
2023/05/09 05:46:33;;;;;;;18.80;17.80;;;22.90;99.10;;;;;;5032485;28;20535;-60
2023/05/09 05:49:00;;;;;;;18.40;17.40;;;23.00;98.90;;;;;;5032476;28;20477;-56
2023/05/09 05:51:26;;;;;;;18.73;17.80;;;23.00;98.80;;;;;;5032328;28;20622;-62
2023/05/09 05:53:53;;;;;;;19.37;18.53;;;23.00;98.80;;;;;;5032397;28;20476;-64
2023/05/09 05:56:21;;;;;;;18.63;17.93;;;23.10;98.40;;;;;;5032320;28;20487;-56
2023/05/09 05:58:48;;;;;;;17.87;17.07;;;23.20;98.10;;;;;;5032298;28;20441;-57
2023/05/09 06:01:15;;;;;;;18.73;17.93;;;23.20;98.10;;;;;;5031989;28;20576;-64
2023/05/09 06:03:43;;;;;;;18.90;18.10;;;23.20;97.80;;;;;;5031193;28;20481;-57
2023/05/09 06:06:10;;;;;;;19.57;18.60;;;23.20;97.90;;;;;;5032205;28;20964;-57
2023/05/09 06:08:37;;;;;;;19.17;18.30;;;23.20;97.70;;;;;;5032206;28;20480;-59
2023/05/09 06:11:04;;;;;;;20.40;19.40;;;23.20;97.60;;;;;;5031936;28;20472;-62
2023/05/09 06:13:31;;;;;;;19.07;18.17;;;23.20;97.70;;;;;;5031813;28;20561;-63
2023/05/09 06:15:58;;;;;;;19.37;18.50;;;23.30;97.90;;;;;;5032001;28;20488;-63
2023/05/09 06:18:25;;;;;;;19.43;18.40;;;23.30;97.60;;;;;;5031792;28;20445;-59
2023/05/09 06:20:53;;;;;;;20.87;19.97;;;23.30;97.90;;;;;;5031701;28;20493;-59
2023/05/09 06:23:21;;;;;;;20.20;19.30;;;23.30;97.90;;;;;;5032058;28;20453;-61
2023/05/09 06:25:48;;;;;;;18.77;17.97;;;23.30;97.80;;;;;;5030493;28;20454;-63
2023/05/09 06:28:15;;;;;;;20.67;19.77;;;23.30;97.70;;;;;;5031090;28;20452;-60
2023/05/09 06:30:42;;;;;;;20.43;19.60;;;23.40;97.70;;;;;;5031512;28;20560;-59
2023/05/09 06:33:09;;;;;;;19.60;18.80;;;23.40;97.50;;;;;;5031842;28;20998;-58
2023/05/09 06:35:36;;;;;;;19.63;18.73;;;23.40;97.40;;;;;;5031460;28;20907;-64
2023/05/09 06:38:04;;;;;;;19.30;18.30;;;23.40;97.50;;;;;;5031351;28;20542;-62
2023/05/09 06:40:31;;;;;;;19.73;18.63;;;23.40;97.40;;;;;;5031532;28;20524;-58
2023/05/09 06:42:58;;;;;;;20.27;19.37;;;23.40;97.20;;;;;;5031201;28;20481;-62
2023/05/09 06:45:25;;;;;;;21.70;20.30;;;23.40;97.10;;;;;;5031431;28;20488;-63
2023/05/09 06:47:52;;;;;;;19.27;18.37;;;23.40;97.60;;;;;;5031424;28;21030;-63
2023/05/09 06:50:20;;;;;;;20.03;19.13;;;23.40;97.70;;;;;;5031529;28;20453;-62
2023/05/09 06:52:47;;;;;;;18.40;17.70;;;23.40;98.00;;;;;;5031548;28;20482;-64
2023/05/09 06:55:15;;;;;;;19.10;18.30;;;23.40;97.80;;;;;;5031576;28;20453;-61
2023/05/09 06:57:42;;;;;;;20.03;19.10;;;23.40;98.00;;;;;;5031030;28;20495;-65
2023/05/09 07:00:11;;;;;;;18.90;18.10;;;23.40;97.60;;;;;;5031126;28;20863;-66
2023/05/09 07:02:40;;;;;;;18.70;17.80;;;23.40;97.70;;;;;;5031271;28;20514;-64
2023/05/09 07:05:08;;;;;;;19.27;18.07;;;23.50;97.80;;;;;;5030995;28;20453;-64
2023/05/09 07:07:35;;;;;;;20.30;19.40;;;23.40;97.60;;;;;;5031263;28;20448;-62
2023/05/09 07:10:03;;;;;;;20.10;19.20;;;23.40;97.60;;;;;;5031311;28;20847;-64
2023/05/09 07:12:32;;;;;;;19.13;18.23;;;23.50;97.70;;;;;;5083067;22;20507;-63
2023/05/09 07:14:59;;;;;;;21.07;20.07;;;23.50;97.50;;;;;;5042822;28;20962;-65
2023/05/09 07:17:28;;;;;;;20.37;19.50;;;23.50;97.60;;;;;;5031200;28;20441;-63
2023/05/09 07:19:55;;;;;;;20.50;19.17;;;23.50;97.30;;;;;;5031293;28;20448;-63
2023/05/09 07:22:22;;;;;;;19.57;18.73;;;23.50;97.50;;;;;;5031131;28;20488;-64
2023/05/09 07:24:50;;;;;;;22.10;21.17;;;23.50;97.30;;;;;;5030962;28;20468;-62
2023/05/09 07:27:17;;;;;;;19.47;18.67;;;23.50;97.00;;;;;;5030768;28;20445;-62
2023/05/09 07:29:47;;;;;;;21.43;20.00;;;23.50;97.00;;;;;;5031148;28;20480;-60
2023/05/09 07:32:14;;;;;;;20.30;19.40;;;23.50;97.00;;;;;;5031168;28;20469;-61
2023/05/09 07:34:42;;;;;;;20.47;19.57;;;23.50;97.30;;;;;;5031116;28;20473;-60
2023/05/09 07:37:08;;;;;;;20.33;19.43;;;23.50;97.10;;;;;;5030935;28;21022;-60
2023/05/09 07:39:35;;;;;;;20.60;19.70;;;23.50;97.10;;;;;;5031023;28;20882;-61
2023/05/09 07:42:02;;;;;;;20.70;19.80;;;23.60;97.10;;;;;;5034859;28;21018;-59
2023/05/09 07:44:30;;;;;;;19.27;18.37;;;23.50;97.00;;;;;;5035085;28;20498;-62
2023/05/09 07:46:59;;;;;;;19.00;18.10;;;23.60;97.10;;;;;;5034574;28;20449;-60
2023/05/09 07:49:26;;;;;;;20.30;19.20;;;23.60;96.90;;;;;;5034856;28;20595;-62
2023/05/09 07:51:53;;;;;;;19.77;18.77;;;23.60;97.00;;;;;;5034918;28;20496;-61
2023/05/09 07:54:20;;;;;;;19.70;18.70;;;23.50;96.90;;;;;;5034822;28;20448;-58
2023/05/09 07:56:47;;;;;;;19.37;18.57;;;23.60;96.90;;;;;;5034455;28;20484;-58
2023/05/09 07:59:14;;;;;;;18.97;18.13;;;23.60;96.70;;;;;;5034646;28;20480;-58
2023/05/09 08:01:41;;;;;;;18.90;18.10;;;23.60;96.80;;;;;;5034430;28;21037;-59
2023/05/09 08:04:09;;;;;;;19.33;18.43;;;23.60;96.80;;;;;;5034594;28;20943;-58
2023/05/09 08:06:36;;;;;;;18.30;17.50;;;23.60;97.10;;;;;;5034463;28;20481;-57
2023/05/09 08:09:04;;;;;;;18.20;17.50;;;23.60;97.00;;;;;;5034008;28;20532;-59
2023/05/09 08:11:33;;;;;;;19.87;18.97;;;23.60;97.10;;;;;;5034171;28;20512;-58
2023/05/09 08:14:00;;;;;;;19.13;18.33;;;23.60;96.90;;;;;;5034316;28;20488;-58
2023/05/09 08:16:27;;;;;;;18.87;18.17;;;23.60;96.90;;;;;;5034236;28;20972;-60
2023/05/09 08:18:54;;;;;;;19.27;18.47;;;23.60;96.80;;;;;;5034033;28;20503;-60
2023/05/09 08:21:22;;;;;;;19.17;18.37;;;23.70;96.70;;;;;;5034252;28;20485;-55
2023/05/09 08:23:49;;;;;;;19.23;18.30;;;23.70;96.60;;;;;;5034235;28;20485;-57
2023/05/09 08:26:16;;;;;;;19.23;18.37;;;23.70;96.70;;;;;;5034012;28;20451;-62
2023/05/09 08:28:43;;;;;;;17.93;17.23;;;23.70;96.50;;;;;;5033928;28;20711;-58
2023/05/09 08:31:10;;;;;;;18.10;17.40;;;23.80;96.40;;;;;;5033992;28;20500;-59
2023/05/09 08:33:37;;;;;;;20.20;19.40;;;23.70;96.20;;;;;;5034066;28;20884;-59
2023/05/09 08:36:04;;;;;;;18.23;17.53;;;23.70;95.90;;;;;;5033374;28;20477;-59
2023/05/09 08:38:32;;;;;;;18.87;18.17;;;23.70;95.30;;;;;;5033868;28;20498;-59
2023/05/09 08:41:03;;;;;;;17.87;17.20;;;23.70;95.10;;;;;;5033743;28;20485;-60
2023/05/09 08:43:30;;;;;;;18.77;17.90;;;23.70;95.80;;;;;;5033866;28;20878;-59
2023/05/09 08:46:00;;;;;;;18.30;17.60;;;23.70;95.70;;;;;;5033507;28;20524;-61
2023/05/09 08:48:28;;;;;;;17.30;16.70;;;23.70;95.70;;;;;;5033557;28;20453;-60
2023/05/09 08:50:56;;;;;;;17.50;16.90;;;23.70;95.70;;;;;;5033651;28;20536;-58
2023/05/09 08:53:23;;;;;;;18.33;17.63;;;23.70;95.60;;;;;;5032947;28;20533;-59
2023/05/09 08:55:52;;;;;;;17.63;17.03;;;23.80;95.50;;;;;;5033424;28;20520;-62
2023/05/09 08:58:21;;;;;;;18.77;17.97;;;23.80;95.40;;;;;;5033358;28;20898;-58
2023/05/09 09:00:50;;;;;;;18.10;17.30;;;23.80;95.30;;;;;;5033344;28;20476;-62
2023/05/09 09:03:18;;;;;;;19.60;18.90;;;23.80;95.10;;;;;;5033553;28;20460;-60
2023/05/09 09:05:47;;;;;;;20.37;19.03;;;23.70;95.00;;;;;;5033154;28;20456;-57
2023/05/09 09:08:15;;;;;;;17.83;17.13;;;23.80;95.10;;;;;;5033159;28;20445;-57
2023/05/09 09:10:46;;;;;;;18.53;17.83;;;23.80;94.90;;;;;;5033191;28;20469;-56
2023/05/09 09:13:15;;;;;;;17.30;16.70;;;23.80;94.80;;;;;;5033358;28;20449;-59
2023/05/09 09:15:45;;;;;;;19.23;18.50;;;23.90;94.50;;;;;;5033003;28;20484;-57
2023/05/09 09:18:18;;;;;;;19.97;18.50;;;23.90;94.40;;;;;;5032561;28;20916;-60
2023/05/09 09:20:48;;;;;;;19.23;18.20;;;23.90;95.60;;;;;;5033060;28;20476;-60
2023/05/09 09:23:19;;;;;;;20.23;19.23;;;23.90;96.40;;;;;;5033046;28;20477;-61
2023/05/09 09:25:46;;;;;;;18.43;17.17;;;24.00;96.80;;;;;;5033159;28;20449;-60
2023/05/09 09:28:15;;;;;;;18.87;17.67;;;24.00;97.10;;;;;;5032463;28;20449;-59
2023/05/09 09:30:47;;;;;;;20.73;19.10;;;24.00;97.20;;;;;;5032629;28;20475;-60
2023/05/09 09:33:20;;;;;;;18.50;17.50;;;24.10;97.70;;;;;;5042480;28;20468;-58
2023/05/09 09:35:48;;;;;;;21.10;19.03;;;24.00;97.70;;;;;;5031892;28;20831;-56
2023/05/09 09:38:16;;;;;;;18.77;17.80;;;23.90;97.20;;;;;;5032665;28;20445;-57
2023/05/09 09:40:49;;;;;;;19.10;18.00;;;23.90;96.90;;;;;;5032910;28;20496;-58
2023/05/09 09:43:18;;;;;;;18.97;18.17;;;23.80;96.10;;;;;;5032780;28;20484;-58
2023/05/09 09:45:49;;;;;;;18.53;17.17;;;23.70;95.50;;;;;;5032476;28;20472;-59
2023/05/09 09:48:16;;;;;;;17.93;16.93;;;23.70;95.40;;;;;;5032381;28;20937;-58
2023/05/09 09:50:43;;;;;;;18.70;17.80;;;23.70;95.80;;;;;;5032580;28;20507;-56
2023/05/09 09:53:10;;;;;;;17.40;16.60;;;23.60;95.60;;;;;;5032514;28;20473;-56
2023/05/09 09:55:37;;;;;;;18.00;17.17;;;23.60;95.70;;;;;;5032571;28;20453;-57
2023/05/09 09:58:15;;;;;;;18.60;17.50;;;23.60;95.50;;;;;;5032317;28;20944;-58
2023/05/09 10:00:44;;;;;;;19.80;18.63;;;23.50;95.90;;;;;;5032314;28;20456;-57
2023/05/09 10:03:15;;;;;;;18.77;17.77;;;23.50;95.50;;;;;;5031681;28;20473;-59
2023/05/09 10:05:43;;;;;;;17.33;16.63;;;23.40;95.60;;;;;;5032077;28;20445;-59
2023/05/09 10:08:09;;;;;;;17.73;16.93;;;23.40;95.60;;;;;;5032115;28;20679;-59
2023/05/09 10:10:37;;;;;;;19.57;18.57;;;23.40;95.50;;;;;;5031998;28;20746;-59
2023/05/09 10:13:06;;;;;;;17.67;16.73;;;23.40;95.50;;;;;;5032209;28;20477;-56
2023/05/09 10:15:35;;;;;;;17.90;17.10;;;23.40;95.30;;;;;;5032364;28;20494;-55
2023/05/09 10:18:06;;;;;;;18.90;18.00;;;23.30;95.00;;;;;;5031768;28;20477;-56
2023/05/09 10:20:34;;;;;;;17.13;16.43;;;23.30;95.00;;;;;;5031905;28;20972;-58
2023/05/09 10:23:03;;;;;;;18.30;17.50;;;23.30;95.10;;;;;;5031950;28;21078;-57
2023/05/09 10:25:39;;;;;;;17.80;17.00;;;23.30;95.10;;;;;;5031976;28;20455;-57
2023/05/09 10:28:10;;;;;;;17.97;17.17;;;23.30;95.20;;;;;;5031664;28;20928;-58
2023/05/09 10:30:46;;;;;;;17.03;16.33;;;23.30;94.90;;;;;;5031701;28;20488;-57
2023/05/09 10:33:16;;;;;;;16.70;16.10;;;23.20;95.10;;;;;;5031852;28;20503;-58
2023/05/09 10:35:46;;;;;;;17.20;16.60;;;23.20;95.00;;;;;;5031761;28;20855;-58
2023/05/09 10:38:13;;;;;;;16.93;16.33;;;23.20;94.80;;;;;;5031588;28;20449;-58
2023/05/09 10:40:40;;;;;;;17.40;16.67;;;23.20;94.90;;;;;;5030424;28;20571;-56
2023/05/09 10:43:11;;;;;;;14.98;14.48;;;23.20;94.90;;;;;;5030135;28;20453;-60
2023/05/09 10:45:40;;;;;;;17.70;16.93;;;23.20;95.40;;;;;;5031356;28;20210;-57
2023/05/09 10:48:10;;;;;;;16.97;16.27;;;23.20;96.80;;;;;;5013750;28;20535;-61
2023/05/09 10:50:39;;;;;;;17.30;16.60;;;23.30;96.40;;;;;;5031059;28;20481;-60
2023/05/09 10:53:13;;;;;;;15.70;15.20;;;23.30;96.00;;;;;;5031731;28;20528;-60
2023/05/09 10:55:49;;;;;;;16.63;16.00;;;23.40;95.90;;;;;;5031573;28;20441;-61
2023/05/09 10:58:26;;;;;;;17.10;16.50;;;23.40;95.30;;;;;;5031539;28;20448;-62
2023/05/09 11:00:55;;;;;;;17.27;16.67;;;23.40;95.00;;;;;;5031818;28;21042;-59
2023/05/09 11:03:23;;;;;;;17.33;16.70;;;23.50;94.70;;;;;;5031869;28;21082;-61
2023/05/09 11:05:52;;;;;;;17.90;17.20;;;23.50;94.30;;;;;;5031800;28;20625;-61
2023/05/09 11:08:25;;;;;;;17.10;16.17;;;23.50;94.40;;;;;;5031242;28;20860;-61
2023/05/09 11:10:53;;;;;;;16.30;15.70;;;23.60;94.50;;;;;;5031314;28;20863;-62
2023/05/09 11:13:22;;;;;;;16.27;15.67;;;23.60;94.30;;;;;;5031498;28;20507;-62
2023/05/09 11:16:12;;;;;;;15.93;15.30;;;23.60;93.90;;;;;;5033520;28;20495;-61
2023/05/09 11:18:52;;;;;;;17.53;16.83;;;23.60;93.80;;;;;;5035071;28;20475;-61
2023/05/09 11:21:20;;;;;;;16.00;15.37;;;23.60;93.30;;;;;;5035205;28;20551;-63
2023/05/09 11:23:49;;;;;;;16.60;16.00;;;23.60;93.00;;;;;;5035308;28;20453;-62
2023/05/09 11:26:17;;;;;;;16.40;15.80;;;23.60;92.80;;;;;;5035187;28;20440;-59
2023/05/09 11:28:53;;;;;;;16.30;15.60;;;23.60;92.90;;;;;;5034840;28;20462;-58
2023/05/09 11:31:20;;;;;;;16.77;16.03;;;23.60;92.80;;;;;;5035099;28;20488;-59
2023/05/09 11:33:53;;;;;;;14.10;13.60;;;23.70;93.00;;;;;;5034365;28;20806;-62
2023/05/09 11:36:30;;;;;;;17.60;16.90;;;23.70;92.60;;;;;;5034959;28;20205;-61
2023/05/09 11:39:02;;;;;;;16.27;15.77;;;23.80;92.80;;;;;;5034365;28;20484;-62
2023/05/09 11:41:29;;;;;;;16.30;15.80;;;23.80;92.50;;;;;;5034827;28;20516;-61
2023/05/09 11:43:58;;;;;;;17.40;16.80;;;23.90;92.70;;;;;;5034946;28;20480;-59
2023/05/09 11:46:25;;;;;;;16.73;16.10;;;23.90;92.40;;;;;;5034750;28;20456;-60
2023/05/09 11:48:53;;;;;;;17.23;16.63;;;23.90;92.30;;;;;;5034552;28;20484;-61
2023/05/09 11:51:20;;;;;;;16.10;15.40;;;23.90;91.80;;;;;;5034824;28;20468;-59
2023/05/09 11:53:50;;;;;;;15.87;15.37;;;23.90;91.40;;;;;;5034808;28;20477;-58
2023/05/09 11:56:17;;;;;;;16.47;15.77;;;23.80;91.40;;;;;;5034525;28;20445;-60
2023/05/09 11:58:45;;;;;;;16.10;15.50;;;23.90;91.70;;;;;;5034417;28;20865;-59
2023/05/09 12:01:12;;;;;;;14.05;13.35;;;23.90;91.50;;;;;;5033679;28;20445;-63
2023/05/09 12:03:43;;;;;;;16.73;16.23;;;23.80;91.30;;;;;;5034512;28;20233;-64
2023/05/09 12:06:15;;;;;;;16.20;15.60;;;23.90;91.40;;;;;;5034394;28;20449;-64
2023/05/09 12:08:42;;;;;;;16.30;15.70;;;23.90;90.70;;;;;;5034159;28;20972;-64
2023/05/09 12:11:10;;;;;;;17.03;16.43;;;23.90;91.10;;;;;;5034188;28;21021;-65
2023/05/09 12:13:45;;;;;;;14.10;13.60;;;23.90;91.00;;;;;;5033224;28;20471;-60
2023/05/09 12:16:12;;;;;;;16.13;15.53;;;23.90;91.10;;;;;;5034391;28;20240;-64
2023/05/09 12:18:44;;;;;;;17.13;16.43;;;24.00;91.10;;;;;;5033866;28;20449;-62
2023/05/09 12:21:11;;;;;;;16.53;15.90;;;24.00;90.90;;;;;;5034313;28;20497;-63
2023/05/09 12:23:38;;;;;;;16.00;15.50;;;24.00;91.00;;;;;;5034136;28;20480;-64
2023/05/09 12:26:05;;;;;;;17.80;17.17;;;24.00;91.30;;;;;;5033693;28;20488;-65
2023/05/09 12:28:34;;;;;;;16.73;16.23;;;23.90;90.90;;;;;;5033261;28;20801;-62
2023/05/09 12:31:02;;;;;;;16.93;16.37;;;24.00;90.90;;;;;;5033991;28;20499;-65
2023/05/09 12:33:30;;;;;;;16.50;15.90;;;24.00;91.00;;;;;;5034057;28;20544;-64